Time;durP1;ratioP1;P1;durP2;ratioP2;P2;SDS_P1;SDS_P2;PMS_P1;PMS_P2;Temp;Humidity;BMP_temperature;BMP_pressure;BME280_temperature;BME280_humidity;BME280_pressure;Samples;Min_cycle;Max_cycle;Signal;HPM_P1;HPM_P2
2021/09/16 00:00:13;;;;;;;7.550001;6.1;;;;;;;16.9;100;95158.6;;;;
2021/09/16 00:01:14;;;;;;;7.550001;6.1;;;;;;;16.9;100;95158.6;;;;
2021/09/16 00:02:15;;;;;;;7.550001;6.1;;;;;;;16.9;100;95158.6;;;;
2021/09/16 00:03:15;;;;;;;7.550001;6.1;;;;;;;16.9;100;95158.6;;;;
2021/09/16 00:04:16;;;;;;;7.550001;6.1;;;;;;;16.9;100;95158.6;;;;
2021/09/16 00:05:17;;;;;;;7.550001;6.1;;;;;;;16.9;100;95158.6;;;;
2021/09/16 00:06:18;;;;;;;7.550001;6.1;;;;;;;16.9;100;95158.6;;;;
2021/09/16 00:07:19;;;;;;;7.550001;6.1;;;;;;;16.9;100;95158.6;;;;
2021/09/16 00:08:19;;;;;;;7.550001;6.1;;;;;;;16.9;100;95158.6;;;;
2021/09/16 00:09:20;;;;;;;7.550001;6.1;;;;;;;16.9;100;95158.6;;;;
2021/09/16 00:10:20;;;;;;;7.550001;6.1;;;;;;;16.9;100;95158.6;;;;
2021/09/16 00:11:21;;;;;;;7.550001;6.1;;;;;;;16.9;100;95158.6;;;;
2021/09/16 00:12:21;;;;;;;7.550001;6.1;;;;;;;16.9;100;95158.6;;;;
2021/09/16 00:13:22;;;;;;;7.550001;6.1;;;;;;;16.9;100;95158.6;;;;
2021/09/16 00:14:22;;;;;;;7.550001;6.1;;;;;;;16.9;100;95158.6;;;;
2021/09/16 00:15:23;;;;;;;6.7;6.100001;;;;;;;16.91;100;95158.89;;;;
2021/09/16 00:16:23;;;;;;;6.7;6.100001;;;;;;;16.91;100;95158.89;;;;
2021/09/16 00:17:24;;;;;;;6.7;6.100001;;;;;;;16.91;100;95158.89;;;;
2021/09/16 00:18:24;;;;;;;6.7;6.100001;;;;;;;16.91;100;95158.89;;;;
2021/09/16 00:19:25;;;;;;;6.7;6.100001;;;;;;;16.91;100;95158.89;;;;
2021/09/16 00:20:26;;;;;;;6.7;6.100001;;;;;;;16.91;100;95158.89;;;;
2021/09/16 00:21:26;;;;;;;6.7;6.100001;;;;;;;16.91;100;95158.89;;;;
2021/09/16 00:22:27;;;;;;;6.7;6.100001;;;;;;;16.91;100;95158.89;;;;
2021/09/16 00:23:27;;;;;;;6.7;6.100001;;;;;;;16.91;100;95158.89;;;;
2021/09/16 00:24:28;;;;;;;6.7;6.100001;;;;;;;16.91;100;95158.89;;;;
2021/09/16 00:25:29;;;;;;;6.7;6.100001;;;;;;;16.91;100;95158.89;;;;
2021/09/16 00:26:29;;;;;;;7.25;6.249999;;;;;;;16.87;100;95155.49;;;;
2021/09/16 00:27:30;;;;;;;7.25;6.249999;;;;;;;16.87;100;95155.49;;;;
2021/09/16 00:28:30;;;;;;;7.25;6.249999;;;;;;;16.87;100;95155.49;;;;
2021/09/16 00:29:30;;;;;;;7.25;6.249999;;;;;;;16.87;100;95155.49;;;;
2021/09/16 00:30:31;;;;;;;7.25;6.249999;;;;;;;16.87;100;95155.49;;;;
2021/09/16 00:31:32;;;;;;;7.25;6.249999;;;;;;;16.87;100;95155.49;;;;
2021/09/16 00:32:33;;;;;;;7.25;6.249999;;;;;;;16.87;100;95155.49;;;;
2021/09/16 00:33:33;;;;;;;7.25;6.249999;;;;;;;16.87;100;95155.49;;;;
2021/09/16 00:34:34;;;;;;;7.25;6.249999;;;;;;;16.87;100;95155.49;;;;
2021/09/16 00:35:34;;;;;;;7.25;6.249999;;;;;;;16.87;100;95155.49;;;;
2021/09/16 00:36:35;;;;;;;8.15;6;;;;;;;16.83;100;95141.72;;;;
2021/09/16 00:37:36;;;;;;;8.15;6;;;;;;;16.83;100;95141.72;;;;
2021/09/16 00:38:36;;;;;;;8.15;6;;;;;;;16.83;100;95141.72;;;;
2021/09/16 00:39:37;;;;;;;8.15;6;;;;;;;16.83;100;95141.72;;;;
2021/09/16 00:40:37;;;;;;;8.15;6;;;;;;;16.83;100;95141.72;;;;
2021/09/16 00:41:38;;;;;;;8.15;6;;;;;;;16.83;100;95141.72;;;;
2021/09/16 00:42:39;;;;;;;8.15;6;;;;;;;16.83;100;95141.72;;;;
2021/09/16 00:43:40;;;;;;;8.15;6;;;;;;;16.83;100;95141.72;;;;
2021/09/16 00:44:41;;;;;;;8.15;6;;;;;;;16.83;100;95141.72;;;;
2021/09/16 00:45:42;;;;;;;8.15;6;;;;;;;16.83;100;95141.72;;;;
2021/09/16 00:46:43;;;;;;;8.15;6;;;;;;;16.83;100;95141.72;;;;
2021/09/16 00:47:43;;;;;;;6.45;5.799999;;;;;;;16.8;100;95144.06;;;;
2021/09/16 00:48:46;;;;;;;6.45;5.799999;;;;;;;16.8;100;95144.06;;;;
2021/09/16 00:49:46;;;;;;;6.45;5.799999;;;;;;;16.8;100;95144.06;;;;
2021/09/16 00:50:47;;;;;;;6.45;5.799999;;;;;;;16.8;100;95144.06;;;;
2021/09/16 00:51:47;;;;;;;6.45;5.799999;;;;;;;16.8;100;95144.06;;;;
2021/09/16 00:52:48;;;;;;;6.45;5.799999;;;;;;;16.8;100;95144.06;;;;
2021/09/16 00:53:49;;;;;;;6.45;5.799999;;;;;;;16.8;100;95144.06;;;;
2021/09/16 00:54:54;;;;;;;6.45;5.799999;;;;;;;16.8;100;95144.06;;;;
2021/09/16 00:55:54;;;;;;;6.45;5.799999;;;;;;;16.8;100;95144.06;;;;
2021/09/16 00:56:57;;;;;;;6.45;5.799999;;;;;;;16.8;100;95144.06;;;;
2021/09/16 00:57:58;;;;;;;6.6;5.799999;;;;;;;16.63;100;95149;;;;
2021/09/16 00:59:03;;;;;;;6.6;5.799999;;;;;;;16.63;100;95149;;;;
2021/09/16 01:00:04;;;;;;;6.6;5.799999;;;;;;;16.63;100;95149;;;;
2021/09/16 01:01:08;;;;;;;6.6;5.799999;;;;;;;16.63;100;95149;;;;
2021/09/16 01:02:08;;;;;;;6.6;5.799999;;;;;;;16.63;100;95149;;;;
2021/09/16 01:03:09;;;;;;;6.6;5.799999;;;;;;;16.63;100;95149;;;;
2021/09/16 01:04:09;;;;;;;6.6;5.799999;;;;;;;16.63;100;95149;;;;
2021/09/16 01:05:10;;;;;;;6.6;5.799999;;;;;;;16.63;100;95149;;;;
2021/09/16 01:06:11;;;;;;;6.6;5.799999;;;;;;;16.63;100;95149;;;;
2021/09/16 01:07:14;;;;;;;6.6;5.799999;;;;;;;16.63;100;95149;;;;
2021/09/16 01:08:14;;;;;;;6.6;5.799999;;;;;;;16.63;100;95149;;;;
2021/09/16 01:09:15;;;;;;;8.549999;5.45;;;;;;;16.45;100;95146.7;;;;
2021/09/16 01:10:16;;;;;;;8.549999;5.45;;;;;;;16.45;100;95146.7;;;;
2021/09/16 01:11:18;;;;;;;8.549999;5.45;;;;;;;16.45;100;95146.7;;;;
2021/09/16 01:12:19;;;;;;;8.549999;5.45;;;;;;;16.45;100;95146.7;;;;
2021/09/16 01:13:19;;;;;;;8.549999;5.45;;;;;;;16.45;100;95146.7;;;;
2021/09/16 01:14:20;;;;;;;8.549999;5.45;;;;;;;16.45;100;95146.7;;;;
2021/09/16 01:15:22;;;;;;;8.549999;5.45;;;;;;;16.45;100;95146.7;;;;
2021/09/16 01:16:23;;;;;;;8.549999;5.45;;;;;;;16.45;100;95146.7;;;;
2021/09/16 01:17:23;;;;;;;8.549999;5.45;;;;;;;16.45;100;95146.7;;;;
2021/09/16 01:18:24;;;;;;;8.549999;5.45;;;;;;;16.45;100;95146.7;;;;
2021/09/16 01:19:25;;;;;;;7.050002;6.4;;;;;;;16.38;100;95157.2;;;;
2021/09/16 01:20:25;;;;;;;7.050002;6.4;;;;;;;16.38;100;95157.2;;;;
2021/09/16 01:21:26;;;;;;;7.050002;6.4;;;;;;;16.38;100;95157.2;;;;
2021/09/16 01:22:26;;;;;;;7.050002;6.4;;;;;;;16.38;100;95157.2;;;;
2021/09/16 01:23:31;;;;;;;7.050002;6.4;;;;;;;16.38;100;95157.2;;;;
2021/09/16 01:24:31;;;;;;;7.050002;6.4;;;;;;;16.38;100;95157.2;;;;
2021/09/16 01:25:32;;;;;;;7.050002;6.4;;;;;;;16.38;100;95157.2;;;;
2021/09/16 01:26:33;;;;;;;7.050002;6.4;;;;;;;16.38;100;95157.2;;;;
2021/09/16 01:27:34;;;;;;;7.050002;6.4;;;;;;;16.38;100;95157.2;;;;
2021/09/16 01:28:34;;;;;;;7.050002;6.4;;;;;;;16.38;100;95157.2;;;;
2021/09/16 01:29:35;;;;;;;7.050002;6.4;;;;;;;16.38;100;95157.2;;;;
2021/09/16 01:30:36;;;;;;;7.100001;6.249999;;;;;;;16.18;100;95154.37;;;;
2021/09/16 01:31:36;;;;;;;7.100001;6.249999;;;;;;;16.18;100;95154.37;;;;
2021/09/16 01:32:39;;;;;;;7.100001;6.249999;;;;;;;16.18;100;95154.37;;;;
2021/09/16 01:33:40;;;;;;;7.100001;6.249999;;;;;;;16.18;100;95154.37;;;;
2021/09/16 01:34:40;;;;;;;7.100001;6.249999;;;;;;;16.18;100;95154.37;;;;
2021/09/16 01:35:41;;;;;;;7.100001;6.249999;;;;;;;16.18;100;95154.37;;;;
2021/09/16 01:36:41;;;;;;;7.100001;6.249999;;;;;;;16.18;100;95154.37;;;;
2021/09/16 01:37:44;;;;;;;7.100001;6.249999;;;;;;;16.18;100;95154.37;;;;
2021/09/16 01:38:45;;;;;;;7.100001;6.249999;;;;;;;16.18;100;95154.37;;;;
2021/09/16 01:39:45;;;;;;;7.100001;6.249999;;;;;;;16.18;100;95154.37;;;;
2021/09/16 01:40:46;;;;;;;7.05;5.749999;;;;;;;16.09;100;95136.94;;;;
2021/09/16 01:41:46;;;;;;;7.05;5.749999;;;;;;;16.09;100;95136.94;;;;
2021/09/16 01:42:47;;;;;;;7.05;5.749999;;;;;;;16.09;100;95136.94;;;;
2021/09/16 01:43:48;;;;;;;7.05;5.749999;;;;;;;16.09;100;95136.94;;;;
2021/09/16 01:44:48;;;;;;;7.05;5.749999;;;;;;;16.09;100;95136.94;;;;
2021/09/16 01:45:49;;;;;;;7.05;5.749999;;;;;;;16.09;100;95136.94;;;;
2021/09/16 01:46:49;;;;;;;7.05;5.749999;;;;;;;16.09;100;95136.94;;;;
2021/09/16 01:47:50;;;;;;;7.05;5.749999;;;;;;;16.09;100;95136.94;;;;
2021/09/16 01:48:51;;;;;;;7.05;5.749999;;;;;;;16.09;100;95136.94;;;;
2021/09/16 01:49:52;;;;;;;7.05;5.749999;;;;;;;16.09;100;95136.94;;;;
2021/09/16 01:50:52;;;;;;;7.05;5.749999;;;;;;;16.09;100;95136.94;;;;
2021/09/16 01:51:53;;;;;;;8.35;6.050001;;;;;;;15.93;100;95138.98;;;;
2021/09/16 01:52:53;;;;;;;8.35;6.050001;;;;;;;15.93;100;95138.98;;;;
2021/09/16 01:53:54;;;;;;;8.35;6.050001;;;;;;;15.93;100;95138.98;;;;
2021/09/16 01:54:54;;;;;;;8.35;6.050001;;;;;;;15.93;100;95138.98;;;;
2021/09/16 01:55:55;;;;;;;8.35;6.050001;;;;;;;15.93;100;95138.98;;;;
2021/09/16 01:56:55;;;;;;;8.35;6.050001;;;;;;;15.93;100;95138.98;;;;
2021/09/16 01:57:56;;;;;;;8.35;6.050001;;;;;;;15.93;100;95138.98;;;;
2021/09/16 01:58:56;;;;;;;8.35;6.050001;;;;;;;15.93;100;95138.98;;;;
2021/09/16 01:59:57;;;;;;;8.35;6.050001;;;;;;;15.93;100;95138.98;;;;
2021/09/16 02:00:57;;;;;;;8.35;6.050001;;;;;;;15.93;100;95138.98;;;;
2021/09/16 02:01:58;;;;;;;7.5;6.2;;;;;;;15.87;100;95130.13;;;;
2021/09/16 02:02:58;;;;;;;7.5;6.2;;;;;;;15.87;100;95130.13;;;;
2021/09/16 02:03:59;;;;;;;7.5;6.2;;;;;;;15.87;100;95130.13;;;;
2021/09/16 02:04:59;;;;;;;7.5;6.2;;;;;;;15.87;100;95130.13;;;;
2021/09/16 02:06:00;;;;;;;7.5;6.2;;;;;;;15.87;100;95130.13;;;;
2021/09/16 02:07:00;;;;;;;7.5;6.2;;;;;;;15.87;100;95130.13;;;;
2021/09/16 02:08:01;;;;;;;7.5;6.2;;;;;;;15.87;100;95130.13;;;;
2021/09/16 02:09:01;;;;;;;7.5;6.2;;;;;;;15.87;100;95130.13;;;;
2021/09/16 02:10:02;;;;;;;7.5;6.2;;;;;;;15.87;100;95130.13;;;;
2021/09/16 02:11:05;;;;;;;7.5;6.2;;;;;;;15.87;100;95130.13;;;;
2021/09/16 02:12:06;;;;;;;7.5;6.2;;;;;;;15.87;100;95130.13;;;;
2021/09/16 02:13:07;;;;;;;6.900001;5.85;;;;;;;15.87;100;95117.33;;;;
2021/09/16 02:14:07;;;;;;;6.900001;5.85;;;;;;;15.87;100;95117.33;;;;
2021/09/16 02:15:08;;;;;;;6.900001;5.85;;;;;;;15.87;100;95117.33;;;;
2021/09/16 02:16:09;;;;;;;6.900001;5.85;;;;;;;15.87;100;95117.33;;;;
2021/09/16 02:17:09;;;;;;;6.900001;5.85;;;;;;;15.87;100;95117.33;;;;
2021/09/16 02:18:10;;;;;;;6.900001;5.85;;;;;;;15.87;100;95117.33;;;;
2021/09/16 02:19:11;;;;;;;6.900001;5.85;;;;;;;15.87;100;95117.33;;;;
2021/09/16 02:20:11;;;;;;;6.900001;5.85;;;;;;;15.87;100;95117.33;;;;
2021/09/16 02:21:12;;;;;;;6.900001;5.85;;;;;;;15.87;100;95117.33;;;;
2021/09/16 02:22:13;;;;;;;6.900001;5.85;;;;;;;15.87;100;95117.33;;;;
2021/09/16 02:23:13;;;;;;;6.900001;5.85;;;;;;;15.87;100;95117.33;;;;
2021/09/16 02:24:14;;;;;;;8.199999;6.299999;;;;;;;15.8;100;95113.24;;;;
2021/09/16 02:25:15;;;;;;;8.199999;6.299999;;;;;;;15.8;100;95113.24;;;;
2021/09/16 02:26:15;;;;;;;8.199999;6.299999;;;;;;;15.8;100;95113.24;;;;
2021/09/16 02:27:16;;;;;;;8.199999;6.299999;;;;;;;15.8;100;95113.24;;;;
2021/09/16 02:28:17;;;;;;;8.199999;6.299999;;;;;;;15.8;100;95113.24;;;;
2021/09/16 02:29:18;;;;;;;8.199999;6.299999;;;;;;;15.8;100;95113.24;;;;
2021/09/16 02:30:18;;;;;;;8.199999;6.299999;;;;;;;15.8;100;95113.24;;;;
2021/09/16 02:31:19;;;;;;;8.199999;6.299999;;;;;;;15.8;100;95113.24;;;;
2021/09/16 02:32:20;;;;;;;8.199999;6.299999;;;;;;;15.8;100;95113.24;;;;
2021/09/16 02:33:21;;;;;;;8.199999;6.299999;;;;;;;15.8;100;95113.24;;;;
2021/09/16 02:34:21;;;;;;;10;6.4;;;;;;;15.78;100;95121.27;;;;
2021/09/16 02:35:22;;;;;;;10;6.4;;;;;;;15.78;100;95121.27;;;;
2021/09/16 02:36:22;;;;;;;10;6.4;;;;;;;15.78;100;95121.27;;;;
2021/09/16 02:37:23;;;;;;;10;6.4;;;;;;;15.78;100;95121.27;;;;
2021/09/16 02:38:24;;;;;;;10;6.4;;;;;;;15.78;100;95121.27;;;;
2021/09/16 02:39:24;;;;;;;10;6.4;;;;;;;15.78;100;95121.27;;;;
2021/09/16 02:40:24;;;;;;;10;6.4;;;;;;;15.78;100;95121.27;;;;
2021/09/16 02:41:27;;;;;;;10;6.4;;;;;;;15.78;100;95121.27;;;;
2021/09/16 02:42:28;;;;;;;10;6.4;;;;;;;15.78;100;95121.27;;;;
2021/09/16 02:43:28;;;;;;;10;6.4;;;;;;;15.78;100;95121.27;;;;
2021/09/16 02:44:29;;;;;;;10;6.4;;;;;;;15.78;100;95121.27;;;;
2021/09/16 02:45:29;;;;;;;7.5;5.95;;;;;;;15.65;100;95129.85;;;;
2021/09/16 02:46:30;;;;;;;7.5;5.95;;;;;;;15.65;100;95129.85;;;;
2021/09/16 02:47:30;;;;;;;7.5;5.95;;;;;;;15.65;100;95129.85;;;;
2021/09/16 02:48:31;;;;;;;7.5;5.95;;;;;;;15.65;100;95129.85;;;;
2021/09/16 02:49:31;;;;;;;7.5;5.95;;;;;;;15.65;100;95129.85;;;;
2021/09/16 02:50:32;;;;;;;7.5;5.95;;;;;;;15.65;100;95129.85;;;;
2021/09/16 02:51:33;;;;;;;7.5;5.95;;;;;;;15.65;100;95129.85;;;;
2021/09/16 02:52:33;;;;;;;7.5;5.95;;;;;;;15.65;100;95129.85;;;;
2021/09/16 02:53:34;;;;;;;7.5;5.95;;;;;;;15.65;100;95129.85;;;;
2021/09/16 02:54:34;;;;;;;7.5;5.95;;;;;;;15.65;100;95129.85;;;;
2021/09/16 02:55:35;;;;;;;7;5.4;;;;;;;15.5;100;95114.47;;;;
2021/09/16 02:56:35;;;;;;;7;5.4;;;;;;;15.5;100;95114.47;;;;
2021/09/16 02:57:36;;;;;;;7;5.4;;;;;;;15.5;100;95114.47;;;;
2021/09/16 02:58:36;;;;;;;7;5.4;;;;;;;15.5;100;95114.47;;;;
2021/09/16 02:59:37;;;;;;;7;5.4;;;;;;;15.5;100;95114.47;;;;
2021/09/16 03:00:37;;;;;;;7;5.4;;;;;;;15.5;100;95114.47;;;;
2021/09/16 03:01:38;;;;;;;7;5.4;;;;;;;15.5;100;95114.47;;;;
2021/09/16 03:02:38;;;;;;;7;5.4;;;;;;;15.5;100;95114.47;;;;
2021/09/16 03:03:39;;;;;;;7;5.4;;;;;;;15.5;100;95114.47;;;;
2021/09/16 03:04:39;;;;;;;7;5.4;;;;;;;15.5;100;95114.47;;;;
2021/09/16 03:05:40;;;;;;;7;5.4;;;;;;;15.5;100;95114.47;;;;
2021/09/16 03:06:40;;;;;;;7.55;5.699999;;;;;;;15.33;100;95117.93;;;;
2021/09/16 03:07:41;;;;;;;7.55;5.699999;;;;;;;15.33;100;95117.93;;;;
2021/09/16 03:08:42;;;;;;;7.55;5.699999;;;;;;;15.33;100;95117.93;;;;
2021/09/16 03:09:42;;;;;;;7.55;5.699999;;;;;;;15.33;100;95117.93;;;;
2021/09/16 03:10:43;;;;;;;7.55;5.699999;;;;;;;15.33;100;95117.93;;;;
2021/09/16 03:11:43;;;;;;;7.55;5.699999;;;;;;;15.33;100;95117.93;;;;
2021/09/16 03:12:44;;;;;;;7.55;5.699999;;;;;;;15.33;100;95117.93;;;;
2021/09/16 03:13:45;;;;;;;7.55;5.699999;;;;;;;15.33;100;95117.93;;;;
2021/09/16 03:14:45;;;;;;;7.55;5.699999;;;;;;;15.33;100;95117.93;;;;
2021/09/16 03:15:45;;;;;;;7.55;5.699999;;;;;;;15.33;100;95117.93;;;;
2021/09/16 03:16:46;;;;;;;8.25;6.8;;;;;;;15.18;100;95126.87;;;;
2021/09/16 03:17:46;;;;;;;8.25;6.8;;;;;;;15.18;100;95126.87;;;;
2021/09/16 03:18:47;;;;;;;8.25;6.8;;;;;;;15.18;100;95126.87;;;;
2021/09/16 03:19:48;;;;;;;8.25;6.8;;;;;;;15.18;100;95126.87;;;;
2021/09/16 03:20:48;;;;;;;8.25;6.8;;;;;;;15.18;100;95126.87;;;;
2021/09/16 03:21:48;;;;;;;8.25;6.8;;;;;;;15.18;100;95126.87;;;;
2021/09/16 03:22:49;;;;;;;8.25;6.8;;;;;;;15.18;100;95126.87;;;;
2021/09/16 03:23:50;;;;;;;8.25;6.8;;;;;;;15.18;100;95126.87;;;;
2021/09/16 03:24:51;;;;;;;8.25;6.8;;;;;;;15.18;100;95126.87;;;;
2021/09/16 03:25:51;;;;;;;8.25;6.8;;;;;;;15.18;100;95126.87;;;;
2021/09/16 03:26:53;;;;;;;8.25;6.8;;;;;;;15.18;100;95126.87;;;;
2021/09/16 03:27:53;;;;;;;7.9;7;;;;;;;15.2;100;95117.91;;;;
2021/09/16 03:28:54;;;;;;;7.9;7;;;;;;;15.2;100;95117.91;;;;
2021/09/16 03:29:54;;;;;;;7.9;7;;;;;;;15.2;100;95117.91;;;;
2021/09/16 03:30:55;;;;;;;7.9;7;;;;;;;15.2;100;95117.91;;;;
2021/09/16 03:31:55;;;;;;;7.9;7;;;;;;;15.2;100;95117.91;;;;
2021/09/16 03:32:56;;;;;;;7.9;7;;;;;;;15.2;100;95117.91;;;;
2021/09/16 03:33:57;;;;;;;7.9;7;;;;;;;15.2;100;95117.91;;;;
2021/09/16 03:34:58;;;;;;;7.9;7;;;;;;;15.2;100;95117.91;;;;
2021/09/16 03:35:58;;;;;;;7.9;7;;;;;;;15.2;100;95117.91;;;;
2021/09/16 03:36:59;;;;;;;7.9;7;;;;;;;15.2;100;95117.91;;;;
2021/09/16 03:37:59;;;;;;;13.25;8.25;;;;;;;15.23;100;95118.33;;;;
2021/09/16 03:39:00;;;;;;;13.25;8.25;;;;;;;15.23;100;95118.33;;;;
2021/09/16 03:40:01;;;;;;;13.25;8.25;;;;;;;15.23;100;95118.33;;;;
2021/09/16 03:41:02;;;;;;;13.25;8.25;;;;;;;15.23;100;95118.33;;;;
2021/09/16 03:42:03;;;;;;;13.25;8.25;;;;;;;15.23;100;95118.33;;;;
2021/09/16 03:43:05;;;;;;;13.25;8.25;;;;;;;15.23;100;95118.33;;;;
2021/09/16 03:44:06;;;;;;;13.25;8.25;;;;;;;15.23;100;95118.33;;;;
2021/09/16 03:45:07;;;;;;;13.25;8.25;;;;;;;15.23;100;95118.33;;;;
2021/09/16 03:46:08;;;;;;;13.25;8.25;;;;;;;15.23;100;95118.33;;;;
2021/09/16 03:47:10;;;;;;;13.25;8.25;;;;;;;15.23;100;95118.33;;;;
2021/09/16 03:48:11;;;;;;;13.25;8.25;;;;;;;15.23;100;95118.33;;;;
2021/09/16 03:49:11;;;;;;;13.25;8.25;;;;;;;15.23;100;95118.33;;;;
2021/09/16 03:50:12;;;;;;;13.25;8.25;;;;;;;15.23;100;95118.33;;;;
2021/09/16 03:51:13;;;;;;;13.25;8.25;;;;;;;15.23;100;95118.33;;;;
2021/09/16 03:52:13;;;;;;;13.25;8.25;;;;;;;15.23;100;95118.33;;;;
2021/09/16 03:53:15;;;;;;;13.25;8.25;;;;;;;15.23;100;95118.33;;;;
2021/09/16 03:54:16;;;;;;;13.25;8.25;;;;;;;15.23;100;95118.33;;;;
2021/09/16 03:55:16;;;;;;;13.25;8.25;;;;;;;15.23;100;95118.33;;;;
2021/09/16 03:56:17;;;;;;;13.25;8.25;;;;;;;15.23;100;95118.33;;;;
2021/09/16 03:57:17;;;;;;;13.25;8.25;;;;;;;15.23;100;95118.33;;;;
2021/09/16 03:58:18;;;;;;;13.25;8.25;;;;;;;15.23;100;95118.33;;;;
2021/09/16 03:59:18;;;;;;;10;7.550001;;;;;;;15.46;100;95120.7;;;;
2021/09/16 04:00:19;;;;;;;10;7.550001;;;;;;;15.46;100;95120.7;;;;
2021/09/16 04:01:19;;;;;;;10;7.550001;;;;;;;15.46;100;95120.7;;;;
2021/09/16 04:02:19;;;;;;;10;7.550001;;;;;;;15.46;100;95120.7;;;;
2021/09/16 04:03:20;;;;;;;10;7.550001;;;;;;;15.46;100;95120.7;;;;
2021/09/16 04:04:20;;;;;;;10;7.550001;;;;;;;15.46;100;95120.7;;;;
2021/09/16 04:05:21;;;;;;;10;7.550001;;;;;;;15.46;100;95120.7;;;;
2021/09/16 04:06:21;;;;;;;10;7.550001;;;;;;;15.46;100;95120.7;;;;
2021/09/16 04:07:22;;;;;;;10;7.550001;;;;;;;15.46;100;95120.7;;;;
2021/09/16 04:08:22;;;;;;;10;7.550001;;;;;;;15.46;100;95120.7;;;;
2021/09/16 04:09:23;;;;;;;10;7.550001;;;;;;;15.46;100;95120.7;;;;
2021/09/16 04:10:23;;;;;;;8.499998;7.400001;;;;;;;15.54;100;95120.59;;;;
2021/09/16 04:11:24;;;;;;;8.499998;7.400001;;;;;;;15.54;100;95120.59;;;;
2021/09/16 04:12:24;;;;;;;8.499998;7.400001;;;;;;;15.54;100;95120.59;;;;
2021/09/16 04:13:25;;;;;;;8.499998;7.400001;;;;;;;15.54;100;95120.59;;;;
2021/09/16 04:14:25;;;;;;;8.499998;7.400001;;;;;;;15.54;100;95120.59;;;;
2021/09/16 04:15:26;;;;;;;8.499998;7.400001;;;;;;;15.54;100;95120.59;;;;
2021/09/16 04:16:26;;;;;;;8.499998;7.400001;;;;;;;15.54;100;95120.59;;;;
2021/09/16 04:17:27;;;;;;;8.499998;7.400001;;;;;;;15.54;100;95120.59;;;;
2021/09/16 04:18:27;;;;;;;8.499998;7.400001;;;;;;;15.54;100;95120.59;;;;
2021/09/16 04:19:28;;;;;;;8.499998;7.400001;;;;;;;15.54;100;95120.59;;;;
2021/09/16 04:20:28;;;;;;;8.499998;7.400001;;;;;;;15.54;100;95120.59;;;;
2021/09/16 04:21:29;;;;;;;8.7;7.799999;;;;;;;15.6;100;95114.47;;;;
2021/09/16 04:22:30;;;;;;;8.7;7.799999;;;;;;;15.6;100;95114.47;;;;
2021/09/16 04:23:30;;;;;;;8.7;7.799999;;;;;;;15.6;100;95114.47;;;;
2021/09/16 04:24:31;;;;;;;8.7;7.799999;;;;;;;15.6;100;95114.47;;;;
2021/09/16 04:25:31;;;;;;;8.7;7.799999;;;;;;;15.6;100;95114.47;;;;
2021/09/16 04:26:32;;;;;;;8.7;7.799999;;;;;;;15.6;100;95114.47;;;;
2021/09/16 04:27:32;;;;;;;8.7;7.799999;;;;;;;15.6;100;95114.47;;;;
2021/09/16 04:28:33;;;;;;;8.7;7.799999;;;;;;;15.6;100;95114.47;;;;
2021/09/16 04:29:33;;;;;;;8.7;7.799999;;;;;;;15.6;100;95114.47;;;;
2021/09/16 04:30:33;;;;;;;8.7;7.799999;;;;;;;15.6;100;95114.47;;;;
2021/09/16 04:31:34;;;;;;;11.7;8.000001;;;;;;;15.68;100;95094.06;;;;
2021/09/16 04:32:35;;;;;;;11.7;8.000001;;;;;;;15.68;100;95094.06;;;;
2021/09/16 04:33:35;;;;;;;11.7;8.000001;;;;;;;15.68;100;95094.06;;;;
2021/09/16 04:34:36;;;;;;;11.7;8.000001;;;;;;;15.68;100;95094.06;;;;
2021/09/16 04:35:36;;;;;;;11.7;8.000001;;;;;;;15.68;100;95094.06;;;;
2021/09/16 04:36:37;;;;;;;11.7;8.000001;;;;;;;15.68;100;95094.06;;;;
2021/09/16 04:37:37;;;;;;;11.7;8.000001;;;;;;;15.68;100;95094.06;;;;
2021/09/16 04:38:38;;;;;;;11.7;8.000001;;;;;;;15.68;100;95094.06;;;;
2021/09/16 04:39:38;;;;;;;11.7;8.000001;;;;;;;15.68;100;95094.06;;;;
2021/09/16 04:40:39;;;;;;;11.7;8.000001;;;;;;;15.68;100;95094.06;;;;
2021/09/16 04:41:39;;;;;;;11.7;8.000001;;;;;;;15.68;100;95094.06;;;;
2021/09/16 04:42:40;;;;;;;10.4;7.849999;;;;;;;15.77;100;95102.78;;;;
2021/09/16 04:43:40;;;;;;;10.4;7.849999;;;;;;;15.77;100;95102.78;;;;
2021/09/16 04:44:41;;;;;;;10.4;7.849999;;;;;;;15.77;100;95102.78;;;;
2021/09/16 04:45:41;;;;;;;10.4;7.849999;;;;;;;15.77;100;95102.78;;;;
2021/09/16 04:46:42;;;;;;;10.4;7.849999;;;;;;;15.77;100;95102.78;;;;
2021/09/16 04:47:42;;;;;;;10.4;7.849999;;;;;;;15.77;100;95102.78;;;;
2021/09/16 04:48:42;;;;;;;10.4;7.849999;;;;;;;15.77;100;95102.78;;;;
2021/09/16 04:49:43;;;;;;;10.4;7.849999;;;;;;;15.77;100;95102.78;;;;
2021/09/16 04:50:43;;;;;;;10.4;7.849999;;;;;;;15.77;100;95102.78;;;;
2021/09/16 04:51:44;;;;;;;10.4;7.849999;;;;;;;15.77;100;95102.78;;;;
2021/09/16 04:52:45;;;;;;;8.400001;7.600001;;;;;;;15.76;100;95109.84;;;;
2021/09/16 04:53:45;;;;;;;8.400001;7.600001;;;;;;;15.76;100;95109.84;;;;
2021/09/16 04:54:46;;;;;;;8.400001;7.600001;;;;;;;15.76;100;95109.84;;;;
2021/09/16 04:55:46;;;;;;;8.400001;7.600001;;;;;;;15.76;100;95109.84;;;;
2021/09/16 04:56:46;;;;;;;8.400001;7.600001;;;;;;;15.76;100;95109.84;;;;
2021/09/16 04:57:47;;;;;;;8.400001;7.600001;;;;;;;15.76;100;95109.84;;;;
2021/09/16 04:58:48;;;;;;;8.400001;7.600001;;;;;;;15.76;100;95109.84;;;;
2021/09/16 04:59:48;;;;;;;8.400001;7.600001;;;;;;;15.76;100;95109.84;;;;
2021/09/16 05:00:49;;;;;;;8.400001;7.600001;;;;;;;15.76;100;95109.84;;;;
2021/09/16 05:01:49;;;;;;;8.400001;7.600001;;;;;;;15.76;100;95109.84;;;;
2021/09/16 05:02:50;;;;;;;8.400001;7.600001;;;;;;;15.76;100;95109.84;;;;
2021/09/16 05:03:50;;;;;;;8.650001;7.650001;;;;;;;15.86;100;95102.63;;;;
2021/09/16 05:04:50;;;;;;;8.650001;7.650001;;;;;;;15.86;100;95102.63;;;;
2021/09/16 05:05:51;;;;;;;8.650001;7.650001;;;;;;;15.86;100;95102.63;;;;
2021/09/16 05:06:51;;;;;;;8.650001;7.650001;;;;;;;15.86;100;95102.63;;;;
2021/09/16 05:07:52;;;;;;;8.650001;7.650001;;;;;;;15.86;100;95102.63;;;;
2021/09/16 05:08:52;;;;;;;8.650001;7.650001;;;;;;;15.86;100;95102.63;;;;
2021/09/16 05:09:53;;;;;;;8.650001;7.650001;;;;;;;15.86;100;95102.63;;;;
2021/09/16 05:10:53;;;;;;;8.650001;7.650001;;;;;;;15.86;100;95102.63;;;;
2021/09/16 05:11:54;;;;;;;8.650001;7.650001;;;;;;;15.86;100;95102.63;;;;
2021/09/16 05:12:54;;;;;;;8.650001;7.650001;;;;;;;15.86;100;95102.63;;;;
2021/09/16 05:13:55;;;;;;;8.650001;7.650001;;;;;;;15.86;100;95102.63;;;;
2021/09/16 05:14:55;;;;;;;8.700001;7.55;;;;;;;15.92;100;95123.18;;;;
2021/09/16 05:15:55;;;;;;;8.700001;7.55;;;;;;;15.92;100;95123.18;;;;
2021/09/16 05:16:56;;;;;;;8.700001;7.55;;;;;;;15.92;100;95123.18;;;;
2021/09/16 05:17:56;;;;;;;8.700001;7.55;;;;;;;15.92;100;95123.18;;;;
2021/09/16 05:18:57;;;;;;;8.700001;7.55;;;;;;;15.92;100;95123.18;;;;
2021/09/16 05:19:58;;;;;;;8.700001;7.55;;;;;;;15.92;100;95123.18;;;;
2021/09/16 05:20:59;;;;;;;8.700001;7.55;;;;;;;15.92;100;95123.18;;;;
2021/09/16 05:21:59;;;;;;;8.700001;7.55;;;;;;;15.92;100;95123.18;;;;
2021/09/16 05:23:00;;;;;;;8.700001;7.55;;;;;;;15.92;100;95123.18;;;;
2021/09/16 05:24:00;;;;;;;8.700001;7.55;;;;;;;15.92;100;95123.18;;;;
2021/09/16 05:25:01;;;;;;;8.700001;7.55;;;;;;;15.92;100;95123.18;;;;
2021/09/16 05:26:01;;;;;;;8.700001;7.55;;;;;;;15.92;100;95123.18;;;;
2021/09/16 05:27:02;;;;;;;8.700001;7.55;;;;;;;15.92;100;95123.18;;;;
2021/09/16 05:28:03;;;;;;;8.700001;7.55;;;;;;;15.92;100;95123.18;;;;
2021/09/16 05:29:04;;;;;;;8.700001;7.55;;;;;;;15.92;100;95123.18;;;;
2021/09/16 05:30:04;;;;;;;8.700001;7.55;;;;;;;15.92;100;95123.18;;;;
2021/09/16 05:31:06;;;;;;;8.700001;7.55;;;;;;;15.92;100;95123.18;;;;
2021/09/16 05:32:06;;;;;;;8.700001;7.55;;;;;;;15.92;100;95123.18;;;;
2021/09/16 05:33:08;;;;;;;8.700001;7.55;;;;;;;15.92;100;95123.18;;;;
2021/09/16 05:34:09;;;;;;;8.700001;7.55;;;;;;;15.92;100;95123.18;;;;
2021/09/16 05:35:09;;;;;;;8.700001;7.55;;;;;;;15.92;100;95123.18;;;;
2021/09/16 05:36:11;;;;;;;9.599999;7.4;;;;;;;16.1;100;95140.87;;;;
2021/09/16 05:37:11;;;;;;;9.599999;7.4;;;;;;;16.1;100;95140.87;;;;
2021/09/16 05:38:12;;;;;;;9.599999;7.4;;;;;;;16.1;100;95140.87;;;;
2021/09/16 05:39:12;;;;;;;9.599999;7.4;;;;;;;16.1;100;95140.87;;;;
2021/09/16 05:40:13;;;;;;;9.599999;7.4;;;;;;;16.1;100;95140.87;;;;
2021/09/16 05:41:14;;;;;;;9.599999;7.4;;;;;;;16.1;100;95140.87;;;;
2021/09/16 05:42:14;;;;;;;9.599999;7.4;;;;;;;16.1;100;95140.87;;;;
2021/09/16 05:43:15;;;;;;;9.599999;7.4;;;;;;;16.1;100;95140.87;;;;
2021/09/16 05:44:15;;;;;;;9.599999;7.4;;;;;;;16.1;100;95140.87;;;;
2021/09/16 05:45:16;;;;;;;9.599999;7.4;;;;;;;16.1;100;95140.87;;;;
2021/09/16 05:46:16;;;;;;;8.549999;7.349999;;;;;;;16.2;100;95137.74;;;;
2021/09/16 05:47:17;;;;;;;8.549999;7.349999;;;;;;;16.2;100;95137.74;;;;
2021/09/16 05:48:19;;;;;;;8.549999;7.349999;;;;;;;16.2;100;95137.74;;;;
2021/09/16 05:49:19;;;;;;;8.549999;7.349999;;;;;;;16.2;100;95137.74;;;;
2021/09/16 05:50:20;;;;;;;8.549999;7.349999;;;;;;;16.2;100;95137.74;;;;
2021/09/16 05:51:21;;;;;;;8.549999;7.349999;;;;;;;16.2;100;95137.74;;;;
2021/09/16 05:52:21;;;;;;;8.549999;7.349999;;;;;;;16.2;100;95137.74;;;;
2021/09/16 05:53:22;;;;;;;8.549999;7.349999;;;;;;;16.2;100;95137.74;;;;
2021/09/16 05:54:22;;;;;;;8.549999;7.349999;;;;;;;16.2;100;95137.74;;;;
2021/09/16 05:55:23;;;;;;;8.549999;7.349999;;;;;;;16.2;100;95137.74;;;;